Terminal Aerodrome Forecast
Issued by NWS

Home | Current Version | Previous Version | Text Only | Print | Product List | Glossary On
Versions: 1 2 3 4 5 6 7 8 9 10 11 12 13 14 15 16 17 18 19 20 21 22 23 24
000
FTUS43 KLSX 020800 AAC
TAFSUS
TAF AMD
KSUS 020841Z 0209/0306 34012KT P6SM VCSH SCT006 OVC025
      TEMPO 0209/0212 2SM TSRA BR OVC025CB
     FM021200 09007KT 5SM -SHRA VCTS OVC040CB
     FM021500 18008KT P6SM OVC050
     FM022100 18010KT 5SM -SHRA VCTS BKN040CB=

USA.gov is the U.S. government's official web portal to all federal, state and local government web resources and services.